sensor_id;sensor_type;location;lat;lon;timestamp;pressure;altitude;pressure_sealevel;temperature;humidity
58662;BME280;44432;49.786;22.760;2023-12-20T00:00:16;98847.80;;;5.76;57.16
58662;BME280;44432;49.786;22.760;2023-12-20T00:03:07;98844.43;;;5.74;57.22
58662;BME280;44432;49.786;22.760;2023-12-20T00:05:38;98843.41;;;5.72;56.97
58662;BME280;44432;49.786;22.760;2023-12-20T00:08:11;98831.70;;;5.68;57.30
58662;BME280;44432;49.786;22.760;2023-12-20T00:10:42;98834.36;;;5.69;57.06
58662;BME280;44432;49.786;22.760;2023-12-20T00:13:14;98832.63;;;5.68;56.94
58662;BME280;44432;49.786;22.760;2023-12-20T00:15:44;98830.39;;;5.64;57.09
58662;BME280;44432;49.786;22.760;2023-12-20T00:18:15;98835.43;;;5.65;57.10
58662;BME280;44432;49.786;22.760;2023-12-20T00:20:46;98835.08;;;5.65;56.70
58662;BME280;44432;49.786;22.760;2023-12-20T00:23:17;98832.23;;;5.69;56.77
58662;BME280;44432;49.786;22.760;2023-12-20T00:25:47;98828.77;;;5.75;56.35
58662;BME280;44432;49.786;22.760;2023-12-20T00:28:18;98821.06;;;5.80;56.23
58662;BME280;44432;49.786;22.760;2023-12-20T00:30:49;98815.90;;;5.86;56.23
58662;BME280;44432;49.786;22.760;2023-12-20T00:33:20;98810.23;;;5.90;56.15
58662;BME280;44432;49.786;22.760;2023-12-20T00:35:50;98797.54;;;5.91;55.87
58662;BME280;44432;49.786;22.760;2023-12-20T00:38:21;98792.10;;;5.93;55.71
58662;BME280;44432;49.786;22.760;2023-12-20T00:40:52;98795.20;;;5.93;56.01
58662;BME280;44432;49.786;22.760;2023-12-20T00:43:23;98792.58;;;5.93;55.59
58662;BME280;44432;49.786;22.760;2023-12-20T01:38:23;98743.45;;;5.81;55.14
58662;BME280;44432;49.786;22.760;2023-12-20T01:40:54;98746.05;;;5.77;55.23
58662;BME280;44432;49.786;22.760;2023-12-20T01:43:25;98743.98;;;5.73;55.31
58662;BME280;44432;49.786;22.760;2023-12-20T01:45:57;98736.95;;;5.70;55.37
58662;BME280;44432;49.786;22.760;2023-12-20T01:48:28;98735.84;;;5.67;55.52
58662;BME280;44432;49.786;22.760;2023-12-20T01:51:02;98734.41;;;5.64;55.69
58662;BME280;44432;49.786;22.760;2023-12-20T01:53:33;98734.04;;;5.60;55.80
58662;BME280;44432;49.786;22.760;2023-12-20T01:56:05;98731.77;;;5.56;55.87
58662;BME280;44432;49.786;22.760;2023-12-20T01:58:39;98724.93;;;5.52;55.91
58662;BME280;44432;49.786;22.760;2023-12-20T02:01:14;98718.86;;;5.48;56.06
58662;BME280;44432;49.786;22.760;2023-12-20T02:03:46;98721.81;;;5.42;56.16
58662;BME280;44432;49.786;22.760;2023-12-20T02:06:19;98710.34;;;5.35;56.29
58662;BME280;44432;49.786;22.760;2023-12-20T02:08:52;98704.06;;;5.29;56.31
58662;BME280;44432;49.786;22.760;2023-12-20T02:11:23;98704.73;;;5.25;56.42
58662;BME280;44432;49.786;22.760;2023-12-20T02:13:54;98698.17;;;5.19;56.45
58662;BME280;44432;49.786;22.760;2023-12-20T02:16:25;98695.89;;;5.17;56.55
58662;BME280;44432;49.786;22.760;2023-12-20T02:18:56;98694.78;;;5.13;56.75
58662;BME280;44432;49.786;22.760;2023-12-20T02:21:33;98691.81;;;5.09;56.83
58662;BME280;44432;49.786;22.760;2023-12-20T02:24:04;98683.91;;;5.02;56.73
58662;BME280;44432;49.786;22.760;2023-12-20T02:26:35;98681.39;;;4.98;56.90
58662;BME280;44432;49.786;22.760;2023-12-20T02:29:06;98673.52;;;4.94;57.09
58662;BME280;44432;49.786;22.760;2023-12-20T02:31:37;98669.15;;;4.91;57.10
58662;BME280;44432;49.786;22.760;2023-12-20T02:34:08;98664.95;;;4.90;57.13
58662;BME280;44432;49.786;22.760;2023-12-20T02:36:39;98658.54;;;4.87;57.25
58662;BME280;44432;49.786;22.760;2023-12-20T02:39:09;98657.55;;;4.83;57.39
58662;BME280;44432;49.786;22.760;2023-12-20T02:41:40;98658.39;;;4.78;57.40
58662;BME280;44432;49.786;22.760;2023-12-20T02:44:11;98658.31;;;4.73;57.55
58662;BME280;44432;49.786;22.760;2023-12-20T02:46:42;98657.55;;;4.68;57.66
58662;BME280;44432;49.786;22.760;2023-12-20T02:49:12;98654.18;;;4.64;57.79
58662;BME280;44432;49.786;22.760;2023-12-20T02:51:43;98655.26;;;4.63;57.86
58662;BME280;44432;49.786;22.760;2023-12-20T02:54:14;98655.17;;;4.62;58.03
58662;BME280;44432;49.786;22.760;2023-12-20T02:56:45;98644.98;;;4.60;57.91
58662;BME280;44432;49.786;22.760;2023-12-20T02:59:16;98646.54;;;4.57;58.06
58662;BME280;44432;49.786;22.760;2023-12-20T03:01:47;98646.09;;;4.56;58.23
58662;BME280;44432;49.786;22.760;2023-12-20T03:04:18;98643.51;;;4.56;58.15
58662;BME280;44432;49.786;22.760;2023-12-20T03:06:48;98648.20;;;4.55;58.23
58662;BME280;44432;49.786;22.760;2023-12-20T03:09:19;98649.38;;;4.51;58.14
58662;BME280;44432;49.786;22.760;2023-12-20T03:11:50;98648.48;;;4.51;58.21
58662;BME280;44432;49.786;22.760;2023-12-20T03:14:21;98650.02;;;4.50;58.20
58662;BME280;44432;49.786;22.760;2023-12-20T03:16:52;98648.83;;;4.48;58.14
58662;BME280;44432;49.786;22.760;2023-12-20T03:19:22;98652.64;;;4.47;58.37
58662;BME280;44432;49.786;22.760;2023-12-20T03:21:54;98644.05;;;4.48;58.31
58662;BME280;44432;49.786;22.760;2023-12-20T03:24:24;98640.09;;;4.47;58.39
58662;BME280;44432;49.786;22.760;2023-12-20T03:26:55;98637.16;;;4.47;58.43
58662;BME280;44432;49.786;22.760;2023-12-20T03:29:26;98635.90;;;4.46;58.53
58662;BME280;44432;49.786;22.760;2023-12-20T03:31:56;98632.83;;;4.43;58.51
58662;BME280;44432;49.786;22.760;2023-12-20T03:34:27;98632.25;;;4.42;58.52
58662;BME280;44432;49.786;22.760;2023-12-20T03:36:58;98627.34;;;4.40;58.56
58662;BME280;44432;49.786;22.760;2023-12-20T03:39:29;98625.31;;;4.39;58.54
58662;BME280;44432;49.786;22.760;2023-12-20T03:42:00;98631.44;;;4.36;58.57
58662;BME280;44432;49.786;22.760;2023-12-20T03:44:31;98634.59;;;4.33;58.80
58662;BME280;44432;49.786;22.760;2023-12-20T03:47:02;98638.66;;;4.29;58.68
58662;BME280;44432;49.786;22.760;2023-12-20T03:49:32;98641.27;;;4.25;58.92
58662;BME280;44432;49.786;22.760;2023-12-20T03:52:06;98641.95;;;4.21;58.92
58662;BME280;44432;49.786;22.760;2023-12-20T03:54:37;98638.59;;;4.17;59.07
58662;BME280;44432;49.786;22.760;2023-12-20T03:57:08;98638.65;;;4.12;59.17
58662;BME280;44432;49.786;22.760;2023-12-20T03:59:39;98633.40;;;4.06;59.24
58662;BME280;44432;49.786;22.760;2023-12-20T04:02:10;98636.34;;;4.02;59.41
58662;BME280;44432;49.786;22.760;2023-12-20T04:04:40;98634.08;;;3.96;59.46
58662;BME280;44432;49.786;22.760;2023-12-20T04:07:11;98631.33;;;3.91;59.61
58662;BME280;44432;49.786;22.760;2023-12-20T04:09:43;98631.18;;;3.88;59.80
58662;BME280;44432;49.786;22.760;2023-12-20T04:12:14;98635.84;;;3.84;59.82
58662;BME280;44432;49.786;22.760;2023-12-20T04:14:44;98637.80;;;3.80;59.96
58662;BME280;44432;49.786;22.760;2023-12-20T04:17:16;98639.92;;;3.76;60.05
58662;BME280;44432;49.786;22.760;2023-12-20T04:19:47;98641.22;;;3.73;60.28
58662;BME280;44432;49.786;22.760;2023-12-20T04:22:18;98642.05;;;3.72;60.14
58662;BME280;44432;49.786;22.760;2023-12-20T04:24:49;98636.50;;;3.71;60.36
58662;BME280;44432;49.786;22.760;2023-12-20T04:27:20;98634.73;;;3.72;60.50
58662;BME280;44432;49.786;22.760;2023-12-20T04:29:50;98633.37;;;3.72;60.40
58662;BME280;44432;49.786;22.760;2023-12-20T04:32:21;98634.85;;;3.71;60.62
58662;BME280;44432;49.786;22.760;2023-12-20T04:34:52;98632.54;;;3.70;60.65
58662;BME280;44432;49.786;22.760;2023-12-20T04:37:22;98641.82;;;3.69;60.62
58662;BME280;44432;49.786;22.760;2023-12-20T04:39:53;98640.16;;;3.69;60.77
58662;BME280;44432;49.786;22.760;2023-12-20T04:42:24;98636.55;;;3.68;60.81
58662;BME280;44432;49.786;22.760;2023-12-20T04:44:54;98632.73;;;3.68;60.96
58662;BME280;44432;49.786;22.760;2023-12-20T04:47:25;98627.23;;;3.68;60.99
58662;BME280;44432;49.786;22.760;2023-12-20T04:49:56;98628.59;;;3.68;61.12
58662;BME280;44432;49.786;22.760;2023-12-20T04:52:27;98620.89;;;3.68;61.18
58662;BME280;44432;49.786;22.760;2023-12-20T04:54:57;98618.20;;;3.69;61.24
58662;BME280;44432;49.786;22.760;2023-12-20T04:57:28;98614.78;;;3.68;61.34
58662;BME280;44432;49.786;22.760;2023-12-20T04:59:59;98618.35;;;3.68;61.18
58662;BME280;44432;49.786;22.760;2023-12-20T05:02:30;98616.64;;;3.66;61.32
58662;BME280;44432;49.786;22.760;2023-12-20T05:05:01;98613.53;;;3.64;61.54
58662;BME280;44432;49.786;22.760;2023-12-20T05:07:32;98603.08;;;3.63;61.57
58662;BME280;44432;49.786;22.760;2023-12-20T05:10:03;98606.92;;;3.63;61.47
58662;BME280;44432;49.786;22.760;2023-12-20T05:12:35;98604.13;;;3.60;61.69
58662;BME280;44432;49.786;22.760;2023-12-20T05:15:07;98613.55;;;3.58;61.84
58662;BME280;44432;49.786;22.760;2023-12-20T05:17:38;98612.21;;;3.58;62.06
58662;BME280;44432;49.786;22.760;2023-12-20T05:20:10;98617.25;;;3.59;62.17
58662;BME280;44432;49.786;22.760;2023-12-20T05:22:42;98615.22;;;3.60;62.01
58662;BME280;44432;49.786;22.760;2023-12-20T05:25:14;98620.27;;;3.63;62.38
58662;BME280;44432;49.786;22.760;2023-12-20T05:27:45;98616.71;;;3.70;62.47
58662;BME280;44432;49.786;22.760;2023-12-20T05:30:16;98618.37;;;3.77;62.60
58662;BME280;44432;49.786;22.760;2023-12-20T05:32:47;98615.88;;;3.85;62.44
58662;BME280;44432;49.786;22.760;2023-12-20T05:35:18;98615.46;;;3.91;62.37
58662;BME280;44432;49.786;22.760;2023-12-20T05:37:49;98617.88;;;4.00;62.36
58662;BME280;44432;49.786;22.760;2023-12-20T05:40:20;98613.48;;;4.07;62.22
58662;BME280;44432;49.786;22.760;2023-12-20T05:42:51;98610.05;;;4.14;62.05
58662;BME280;44432;49.786;22.760;2023-12-20T05:45:22;98605.98;;;4.20;61.96
58662;BME280;44432;49.786;22.760;2023-12-20T05:47:52;98603.46;;;4.26;61.95
58662;BME280;44432;49.786;22.760;2023-12-20T05:50:23;98599.92;;;4.33;61.80
58662;BME280;44432;49.786;22.760;2023-12-20T05:52:54;98596.27;;;4.37;61.96
58662;BME280;44432;49.786;22.760;2023-12-20T05:55:25;98597.73;;;4.40;61.84
58662;BME280;44432;49.786;22.760;2023-12-20T05:57:56;98603.44;;;4.44;61.69
58662;BME280;44432;49.786;22.760;2023-12-20T06:00:26;98599.07;;;4.47;61.65
58662;BME280;44432;49.786;22.760;2023-12-20T06:02:57;98597.20;;;4.49;61.60
58662;BME280;44432;49.786;22.760;2023-12-20T06:05:28;98601.80;;;4.51;61.63
58662;BME280;44432;49.786;22.760;2023-12-20T06:07:59;98604.19;;;4.53;61.63
58662;BME280;44432;49.786;22.760;2023-12-20T06:10:30;98604.65;;;4.55;61.59
58662;BME280;44432;49.786;22.760;2023-12-20T06:13:01;98599.98;;;4.54;61.57
58662;BME280;44432;49.786;22.760;2023-12-20T06:15:33;98602.92;;;4.56;61.60
58662;BME280;44432;49.786;22.760;2023-12-20T06:18:05;98600.64;;;4.57;61.62
58662;BME280;44432;49.786;22.760;2023-12-20T06:20:37;98602.63;;;4.59;61.57
58662;BME280;44432;49.786;22.760;2023-12-20T06:23:08;98596.41;;;4.62;61.48
58662;BME280;44432;49.786;22.760;2023-12-20T06:25:38;98593.33;;;4.65;61.39
58662;BME280;44432;49.786;22.760;2023-12-20T06:28:09;98594.27;;;4.67;61.48
58662;BME280;44432;49.786;22.760;2023-12-20T06:30:44;98595.27;;;4.70;61.31
58662;BME280;44432;49.786;22.760;2023-12-20T06:33:16;98597.26;;;4.74;61.31
58662;BME280;44432;49.786;22.760;2023-12-20T06:35:48;98592.94;;;4.77;61.32
58662;BME280;44432;49.786;22.760;2023-12-20T06:38:20;98594.45;;;4.81;61.08
58662;BME280;44432;49.786;22.760;2023-12-20T06:40:51;98591.08;;;4.82;61.09
58662;BME280;44432;49.786;22.760;2023-12-20T06:43:21;98594.47;;;4.84;60.99
58662;BME280;44432;49.786;22.760;2023-12-20T06:45:52;98598.73;;;4.85;61.02
58662;BME280;44432;49.786;22.760;2023-12-20T06:48:23;98599.98;;;4.86;61.15
58662;BME280;44432;49.786;22.760;2023-12-20T06:50:54;98606.92;;;4.88;61.01
58662;BME280;44432;49.786;22.760;2023-12-20T06:53:25;98605.60;;;4.90;61.05
58662;BME280;44432;49.786;22.760;2023-12-20T06:55:56;98601.72;;;4.93;61.16
58662;BME280;44432;49.786;22.760;2023-12-20T06:58:27;98600.69;;;4.98;61.24
58662;BME280;44432;49.786;22.760;2023-12-20T07:00:57;98599.96;;;5.03;61.04
58662;BME280;44432;49.786;22.760;2023-12-20T07:03:28;98598.70;;;5.08;60.99
58662;BME280;44432;49.786;22.760;2023-12-20T07:05:59;98604.92;;;5.12;60.89
58662;BME280;44432;49.786;22.760;2023-12-20T07:08:30;98598.91;;;5.17;60.90
58662;BME280;44432;49.786;22.760;2023-12-20T07:11:01;98593.10;;;5.22;60.69
58662;BME280;44432;49.786;22.760;2023-12-20T07:13:32;98589.95;;;5.28;60.45
58662;BME280;44432;49.786;22.760;2023-12-20T07:16:03;98585.91;;;5.37;60.45
58662;BME280;44432;49.786;22.760;2023-12-20T07:18:34;98577.73;;;5.47;60.21
58662;BME280;44432;49.786;22.760;2023-12-20T07:21:05;98569.84;;;5.57;59.72
58662;BME280;44432;49.786;22.760;2023-12-20T07:23:37;98573.70;;;5.71;58.82
58662;BME280;44432;49.786;22.760;2023-12-20T07:26:08;98576.59;;;5.85;59.06
58662;BME280;44432;49.786;22.760;2023-12-20T07:28:39;98574.90;;;5.99;58.55
58662;BME280;44432;49.786;22.760;2023-12-20T07:31:11;98578.54;;;6.09;58.41
58662;BME280;44432;49.786;22.760;2023-12-20T07:33:42;98576.81;;;6.20;58.10
58662;BME280;44432;49.786;22.760;2023-12-20T07:36:13;98575.57;;;6.28;57.96
58662;BME280;44432;49.786;22.760;2023-12-20T07:38:43;98582.55;;;6.36;57.58
58662;BME280;44432;49.786;22.760;2023-12-20T07:41:15;98583.31;;;6.42;57.25
58662;BME280;44432;49.786;22.760;2023-12-20T07:43:46;98577.70;;;6.48;56.73
58662;BME280;44432;49.786;22.760;2023-12-20T07:46:17;98574.59;;;6.55;56.49
58662;BME280;44432;49.786;22.760;2023-12-20T07:48:52;98584.67;;;6.60;56.83
58662;BME280;44432;49.786;22.760;2023-12-20T07:51:23;98580.35;;;6.64;56.33
58662;BME280;44432;49.786;22.760;2023-12-20T07:53:54;98580.86;;;6.68;56.10
58662;BME280;44432;49.786;22.760;2023-12-20T07:56:25;98581.75;;;6.72;56.20
58662;BME280;44432;49.786;22.760;2023-12-20T07:58:55;98582.92;;;6.77;56.48
58662;BME280;44432;49.786;22.760;2023-12-20T08:01:26;98578.91;;;6.80;56.03
58662;BME280;44432;49.786;22.760;2023-12-20T08:03:57;98575.31;;;6.83;55.70
58662;BME280;44432;49.786;22.760;2023-12-20T08:06:28;98570.79;;;6.87;55.86
58662;BME280;44432;49.786;22.760;2023-12-20T08:08:59;98567.79;;;6.90;55.57
58662;BME280;44432;49.786;22.760;2023-12-20T08:11:30;98563.98;;;6.94;55.62
58662;BME280;44432;49.786;22.760;2023-12-20T08:14:00;98560.66;;;6.99;55.79
58662;BME280;44432;49.786;22.760;2023-12-20T08:16:31;98558.86;;;7.06;55.64
58662;BME280;44432;49.786;22.760;2023-12-20T08:19:02;98557.02;;;7.13;55.29
58662;BME280;44432;49.786;22.760;2023-12-20T08:21:33;98554.73;;;7.20;55.31
58662;BME280;44432;49.786;22.760;2023-12-20T08:24:04;98551.15;;;7.30;55.86
58662;BME280;44432;49.786;22.760;2023-12-20T08:26:36;98549.60;;;7.38;55.38
58662;BME280;44432;49.786;22.760;2023-12-20T08:29:07;98548.52;;;7.46;55.42
58662;BME280;44432;49.786;22.760;2023-12-20T08:31:37;98543.52;;;7.53;55.36
58662;BME280;44432;49.786;22.760;2023-12-20T08:34:08;98543.30;;;7.63;55.10
58662;BME280;44432;49.786;22.760;2023-12-20T08:36:41;98533.79;;;7.71;54.93
58662;BME280;44432;49.786;22.760;2023-12-20T08:39:12;98530.77;;;7.77;54.77
58662;BME280;44432;49.786;22.760;2023-12-20T08:41:43;98531.09;;;7.82;54.30
58662;BME280;44432;49.786;22.760;2023-12-20T08:44:16;98523.72;;;7.90;54.41
58662;BME280;44432;49.786;22.760;2023-12-20T08:46:45;98524.26;;;7.99;54.34
58662;BME280;44432;49.786;22.760;2023-12-20T08:49:16;98521.64;;;8.02;53.76
58662;BME280;44432;49.786;22.760;2023-12-20T08:51:47;98517.09;;;8.10;54.02
58662;BME280;44432;49.786;22.760;2023-12-20T08:54:18;98503.70;;;8.20;54.17
58662;BME280;44432;49.786;22.760;2023-12-20T08:56:49;98500.11;;;8.27;53.84
58662;BME280;44432;49.786;22.760;2023-12-20T08:59:20;98506.70;;;8.33;53.80
58662;BME280;44432;49.786;22.760;2023-12-20T09:01:51;98515.16;;;8.37;53.69
58662;BME280;44432;49.786;22.760;2023-12-20T09:04:22;98516.91;;;8.41;53.79
58662;BME280;44432;49.786;22.760;2023-12-20T09:06:53;98517.73;;;8.44;53.58
58662;BME280;44432;49.786;22.760;2023-12-20T09:09:24;98514.23;;;8.49;53.69
58662;BME280;44432;49.786;22.760;2023-12-20T09:11:55;98512.95;;;8.56;53.37
58662;BME280;44432;49.786;22.760;2023-12-20T09:14:25;98510.54;;;8.67;53.21
58662;BME280;44432;49.786;22.760;2023-12-20T09:16:56;98512.35;;;8.78;53.05
58662;BME280;44432;49.786;22.760;2023-12-20T09:19:27;98507.98;;;8.86;52.42
58662;BME280;44432;49.786;22.760;2023-12-20T09:21:59;98503.16;;;8.96;52.47
58662;BME280;44432;49.786;22.760;2023-12-20T09:24:29;98499.57;;;9.05;52.33
58662;BME280;44432;49.786;22.760;2023-12-20T09:27:00;98493.17;;;9.14;52.16
58662;BME280;44432;49.786;22.760;2023-12-20T09:29:32;98484.99;;;9.23;51.65
58662;BME280;44432;49.786;22.760;2023-12-20T09:32:04;98488.73;;;9.38;51.67
58662;BME280;44432;49.786;22.760;2023-12-20T09:34:35;98489.77;;;9.54;50.95
58662;BME280;44432;49.786;22.760;2023-12-20T09:37:06;98485.79;;;9.72;50.88
58662;BME280;44432;49.786;22.760;2023-12-20T09:39:37;98487.02;;;9.94;50.96
58662;BME280;44432;49.786;22.760;2023-12-20T09:42:08;98485.42;;;10.15;50.67
58662;BME280;44432;49.786;22.760;2023-12-20T09:44:39;98482.53;;;10.31;50.02
58662;BME280;44432;49.786;22.760;2023-12-20T09:47:12;98479.23;;;10.40;49.39
58662;BME280;44432;49.786;22.760;2023-12-20T09:49:43;98485.55;;;10.42;48.95
58662;BME280;44432;49.786;22.760;2023-12-20T09:52:15;98484.91;;;10.44;48.92
58662;BME280;44432;49.786;22.760;2023-12-20T09:54:47;98486.95;;;10.41;48.57
58662;BME280;44432;49.786;22.760;2023-12-20T09:57:20;98488.22;;;10.33;48.32
58662;BME280;44432;49.786;22.760;2023-12-20T09:59:51;98490.41;;;10.23;48.50
58662;BME280;44432;49.786;22.760;2023-12-20T10:02:25;98486.58;;;10.11;48.59
58662;BME280;44432;49.786;22.760;2023-12-20T10:04:56;98486.45;;;9.97;49.01
58662;BME280;44432;49.786;22.760;2023-12-20T10:07:27;98492.27;;;9.85;49.15
58662;BME280;44432;49.786;22.760;2023-12-20T10:09:58;98492.64;;;9.72;49.53
58662;BME280;44432;49.786;22.760;2023-12-20T10:12:29;98488.73;;;9.65;49.99
58662;BME280;44432;49.786;22.760;2023-12-20T10:15:00;98488.04;;;9.59;50.00
58662;BME280;44432;49.786;22.760;2023-12-20T10:17:31;98491.20;;;9.45;49.78
58662;BME280;44432;49.786;22.760;2023-12-20T10:20:03;98485.98;;;9.35;50.10
58662;BME280;44432;49.786;22.760;2023-12-20T10:22:38;98491.95;;;9.25;50.31
58662;BME280;44432;49.786;22.760;2023-12-20T10:25:10;98491.66;;;9.19;50.55
58662;BME280;44432;49.786;22.760;2023-12-20T10:27:41;98489.57;;;9.05;50.57
58662;BME280;44432;49.786;22.760;2023-12-20T10:30:13;98491.83;;;8.96;51.03
58662;BME280;44432;49.786;22.760;2023-12-20T10:32:44;98493.41;;;8.89;51.27
58662;BME280;44432;49.786;22.760;2023-12-20T10:35:15;98495.02;;;8.78;51.06
58662;BME280;44432;49.786;22.760;2023-12-20T10:37:46;98500.20;;;8.67;51.40
58662;BME280;44432;49.786;22.760;2023-12-20T10:40:17;98493.11;;;8.53;51.28
58662;BME280;44432;49.786;22.760;2023-12-20T10:42:48;98488.77;;;8.34;51.62
58662;BME280;44432;49.786;22.760;2023-12-20T10:45:20;98488.10;;;8.23;52.22
58662;BME280;44432;49.786;22.760;2023-12-20T10:47:51;98484.08;;;8.16;52.71
58662;BME280;44432;49.786;22.760;2023-12-20T10:50:22;98479.73;;;8.12;52.78
58662;BME280;44432;49.786;22.760;2023-12-20T10:52:53;98477.48;;;8.09;52.80
58662;BME280;44432;49.786;22.760;2023-12-20T10:55:25;98484.23;;;8.03;52.89
58662;BME280;44432;49.786;22.760;2023-12-20T10:58:02;98490.81;;;7.99;53.40
58662;BME280;44432;49.786;22.760;2023-12-20T11:00:37;98498.92;;;7.91;53.46
58662;BME280;44432;49.786;22.760;2023-12-20T11:03:10;98503.84;;;7.83;53.32
58662;BME280;44432;49.786;22.760;2023-12-20T11:05:46;98499.00;;;7.75;53.46
58662;BME280;44432;49.786;22.760;2023-12-20T11:08:22;98500.35;;;7.67;54.11
58662;BME280;44432;49.786;22.760;2023-12-20T11:11:02;98491.29;;;7.63;54.27
58662;BME280;44432;49.786;22.760;2023-12-20T11:13:37;98493.23;;;7.57;54.29
58662;BME280;44432;49.786;22.760;2023-12-20T11:16:11;98492.48;;;7.51;54.30
58662;BME280;44432;49.786;22.760;2023-12-20T11:18:44;98488.33;;;7.46;54.79
58662;BME280;44432;49.786;22.760;2023-12-20T11:21:17;98483.86;;;7.42;54.95
58662;BME280;44432;49.786;22.760;2023-12-20T11:23:48;98483.12;;;7.37;55.01
58662;BME280;44432;49.786;22.760;2023-12-20T11:26:23;98483.55;;;7.33;55.10
58662;BME280;44432;49.786;22.760;2023-12-20T11:32:27;98488.04;;;7.33;55.74
58662;BME280;44432;49.786;22.760;2023-12-20T11:35:00;98486.73;;;7.34;55.85
58662;BME280;44432;49.786;22.760;2023-12-20T11:37:32;98491.79;;;7.33;55.76
58662;BME280;44432;49.786;22.760;2023-12-20T11:40:07;98485.22;;;7.21;55.68
58662;BME280;44432;49.786;22.760;2023-12-20T11:42:41;98481.31;;;7.11;56.19
58662;BME280;44432;49.786;22.760;2023-12-20T11:45:11;98484.09;;;6.95;55.94
58662;BME280;44432;49.786;22.760;2023-12-20T11:47:47;98484.58;;;6.83;56.18
58662;BME280;44432;49.786;22.760;2023-12-20T11:50:19;98477.77;;;6.77;56.71
58662;BME280;44432;49.786;22.760;2023-12-20T11:52:51;98478.27;;;6.73;57.09
58662;BME280;44432;49.786;22.760;2023-12-20T11:55:22;98471.88;;;6.66;57.07
58662;BME280;44432;49.786;22.760;2023-12-20T11:57:54;98471.21;;;6.61;57.01
58662;BME280;44432;49.786;22.760;2023-12-20T12:00:26;98464.64;;;6.57;57.31
58662;BME280;44432;49.786;22.760;2023-12-20T12:03:00;98463.88;;;6.55;57.46
58662;BME280;44432;49.786;22.760;2023-12-20T12:05:33;98459.23;;;6.56;57.67
58662;BME280;44432;49.786;22.760;2023-12-20T12:08:05;98452.58;;;6.57;57.59
58662;BME280;44432;49.786;22.760;2023-12-20T12:10:37;98448.83;;;6.57;57.57
58662;BME280;44432;49.786;22.760;2023-12-20T12:13:08;98454.23;;;6.61;57.74
58662;BME280;44432;49.786;22.760;2023-12-20T12:15:39;98456.27;;;6.65;57.34
58662;BME280;44432;49.786;22.760;2023-12-20T12:18:15;98459.45;;;6.69;57.73
58662;BME280;44432;49.786;22.760;2023-12-20T12:20:46;98455.96;;;6.72;57.70
58662;BME280;44432;49.786;22.760;2023-12-20T12:23:24;98453.98;;;6.73;57.70
58662;BME280;44432;49.786;22.760;2023-12-20T12:25:56;98451.38;;;6.78;57.50
58662;BME280;44432;49.786;22.760;2023-12-20T12:28:28;98452.79;;;6.80;57.37
58662;BME280;44432;49.786;22.760;2023-12-20T12:31:01;98453.48;;;6.84;57.47
58662;BME280;44432;49.786;22.760;2023-12-20T12:33:32;98453.52;;;6.86;57.20
58662;BME280;44432;49.786;22.760;2023-12-20T12:36:03;98454.98;;;6.86;57.27
58662;BME280;44432;49.786;22.760;2023-12-20T12:38:36;98458.16;;;6.87;57.13
58662;BME280;44432;49.786;22.760;2023-12-20T12:41:07;98457.31;;;6.85;57.12
58662;BME280;44432;49.786;22.760;2023-12-20T12:43:39;98455.23;;;6.83;57.44
58662;BME280;44432;49.786;22.760;2023-12-20T12:46:11;98450.64;;;6.82;56.97
58662;BME280;44432;49.786;22.760;2023-12-20T12:48:42;98451.00;;;6.82;57.49
58662;BME280;44432;49.786;22.760;2023-12-20T12:51:13;98456.50;;;6.79;56.96
58662;BME280;44432;49.786;22.760;2023-12-20T12:53:44;98456.27;;;6.75;57.34
58662;BME280;44432;49.786;22.760;2023-12-20T12:56:15;98452.54;;;6.69;57.37
58662;BME280;44432;49.786;22.760;2023-12-20T12:58:46;98456.58;;;6.68;57.84
58662;BME280;44432;49.786;22.760;2023-12-20T13:01:17;98452.53;;;6.61;58.00
58662;BME280;44432;49.786;22.760;2023-12-20T13:03:48;98452.66;;;6.58;57.97
58662;BME280;44432;49.786;22.760;2023-12-20T13:06:19;98456.34;;;6.57;58.04
58662;BME280;44432;49.786;22.760;2023-12-20T13:08:50;98460.16;;;6.57;58.49
58662;BME280;44432;49.786;22.760;2023-12-20T13:11:21;98454.96;;;6.56;58.38
58662;BME280;44432;49.786;22.760;2023-12-20T13:13:52;98469.98;;;6.57;59.17
58662;BME280;44432;49.786;22.760;2023-12-20T13:16:22;98481.35;;;6.58;59.31
58662;BME280;44432;49.786;22.760;2023-12-20T13:18:53;98477.55;;;6.56;59.93
58662;BME280;44432;49.786;22.760;2023-12-20T13:21:25;98468.62;;;6.51;60.52
58662;BME280;44432;49.786;22.760;2023-12-20T13:23:56;98465.45;;;6.44;60.61
58662;BME280;44432;49.786;22.760;2023-12-20T13:26:27;98469.02;;;6.37;61.31
58662;BME280;44432;49.786;22.760;2023-12-20T13:28:57;98472.42;;;6.28;62.09
58662;BME280;44432;49.786;22.760;2023-12-20T13:31:28;98476.33;;;6.17;62.98
58662;BME280;44432;49.786;22.760;2023-12-20T13:33:59;98480.86;;;6.06;63.29
58662;BME280;44432;49.786;22.760;2023-12-20T13:36:31;98482.60;;;5.95;64.25
58662;BME280;44432;49.786;22.760;2023-12-20T13:39:02;98484.86;;;5.82;65.21
58662;BME280;44432;49.786;22.760;2023-12-20T13:41:34;98489.13;;;5.68;65.61
58662;BME280;44432;49.786;22.760;2023-12-20T13:44:05;98488.38;;;5.53;66.80
58662;BME280;44432;49.786;22.760;2023-12-20T13:46:37;98497.09;;;5.39;67.36
58662;BME280;44432;49.786;22.760;2023-12-20T13:49:08;98501.13;;;5.26;68.29
58662;BME280;44432;49.786;22.760;2023-12-20T13:51:40;98501.67;;;5.11;68.86
58662;BME280;44432;49.786;22.760;2023-12-20T13:54:11;98510.23;;;5.00;69.59
58662;BME280;44432;49.786;22.760;2023-12-20T13:56:42;98510.23;;;4.89;70.16
58662;BME280;44432;49.786;22.760;2023-12-20T13:59:13;98515.23;;;4.81;70.44
58662;BME280;44432;49.786;22.760;2023-12-20T14:01:44;98511.02;;;4.75;70.83
58662;BME280;44432;49.786;22.760;2023-12-20T14:04:15;98513.33;;;4.69;71.57
58662;BME280;44432;49.786;22.760;2023-12-20T14:06:46;98510.70;;;4.61;71.96
58662;BME280;44432;49.786;22.760;2023-12-20T14:09:17;98509.02;;;4.54;72.31
58662;BME280;44432;49.786;22.760;2023-12-20T14:11:47;98501.84;;;4.51;72.65
58662;BME280;44432;49.786;22.760;2023-12-20T14:14:18;98501.49;;;4.48;72.96
58662;BME280;44432;49.786;22.760;2023-12-20T14:16:49;98495.00;;;4.44;73.36